createdAt,value
2023-04-05T00:02:07.273Z,1.50
2023-04-05T00:04:34.152Z,1.50
2023-04-05T00:07:01.765Z,1.50
2023-04-05T00:09:28.504Z,1.40
2023-04-05T00:11:55.252Z,1.40
2023-04-05T00:14:21.981Z,1.50
2023-04-05T00:16:48.734Z,1.40
2023-04-05T00:19:15.440Z,1.40
2023-04-05T00:21:42.130Z,1.40
2023-04-05T00:24:08.923Z,1.40
2023-04-05T00:26:38.019Z,1.40
2023-04-05T00:29:04.780Z,1.40
2023-04-05T00:31:31.530Z,1.40
2023-04-05T00:33:58.486Z,1.30
2023-04-05T00:36:26.304Z,1.30
2023-04-05T00:38:53.014Z,1.30
2023-04-05T00:41:20.737Z,1.30
2023-04-05T00:43:48.428Z,1.40
2023-04-05T00:46:15.389Z,1.40
2023-04-05T00:48:42.100Z,1.40
2023-04-05T00:51:12.672Z,1.30
2023-04-05T00:53:43.381Z,1.30
2023-04-05T00:56:12.639Z,1.30
2023-04-05T00:58:39.551Z,1.30
2023-04-05T01:01:23.792Z,1.20
2023-04-05T01:03:53.814Z,1.30
2023-04-05T01:06:52.360Z,1.30
2023-04-05T01:09:58.624Z,1.20
2023-04-05T01:12:32.894Z,1.20
2023-04-05T01:15:01.264Z,1.20
2023-04-05T01:17:32.249Z,1.20
2023-04-05T01:20:01.484Z,1.10
2023-04-05T01:22:48.289Z,1.10
2023-04-05T01:25:37.746Z,1.00
2023-04-05T01:28:18.592Z,1.10
2023-04-05T01:30:54.115Z,1.10
2023-04-05T01:33:32.457Z,1.00
2023-04-05T01:36:02.017Z,0.90
2023-04-05T01:38:29.644Z,1.00
2023-04-05T01:40:56.817Z,1.00
2023-04-05T01:43:23.857Z,1.00
2023-04-05T01:45:50.537Z,1.00
2023-04-05T01:48:17.374Z,1.00
2023-04-05T01:50:44.497Z,1.00
2023-04-05T01:53:11.248Z,1.00
2023-04-05T01:55:38.187Z,0.90
2023-04-05T01:58:04.983Z,0.90
2023-04-05T02:00:31.841Z,0.90
2023-04-05T02:02:58.666Z,0.90
2023-04-05T02:05:25.570Z,1.10
2023-04-05T02:07:52.302Z,1.10
2023-04-05T02:10:19.581Z,1.20
2023-04-05T02:12:46.358Z,1.30
2023-04-05T02:15:14.245Z,1.30
2023-04-05T02:17:42.618Z,1.30
2023-04-05T02:20:10.640Z,1.30
2023-04-05T02:22:38.833Z,1.40
2023-04-05T02:25:08.377Z,1.40
2023-04-05T02:27:35.386Z,1.40
2023-04-05T02:30:04.145Z,1.40
2023-04-05T02:32:33.141Z,1.40
2023-04-05T02:35:02.928Z,1.50
2023-04-05T02:37:29.612Z,1.50
2023-04-05T02:39:56.399Z,1.40
2023-04-05T02:42:23.088Z,1.50
2023-04-05T02:44:51.263Z,1.60
2023-04-05T02:47:18.011Z,1.60
2023-04-05T02:49:44.769Z,1.60
2023-04-05T02:52:11.475Z,1.70
2023-04-05T02:54:38.165Z,1.70
2023-04-05T02:57:04.995Z,1.70
2023-04-05T02:59:32.292Z,1.80
2023-04-05T03:01:59.032Z,1.80
2023-04-05T03:04:26.321Z,1.70
2023-04-05T03:06:53.207Z,1.70
2023-04-05T03:09:19.947Z,1.60
2023-04-05T03:11:47.189Z,1.60
2023-04-05T03:14:13.872Z,1.60
2023-04-05T03:16:40.662Z,1.60
2023-04-05T03:19:07.587Z,1.60
2023-04-05T03:21:34.395Z,1.70
2023-04-05T03:24:02.417Z,1.70
2023-04-05T03:26:29.171Z,1.70
2023-04-05T03:28:55.886Z,1.80
2023-04-05T03:31:22.654Z,1.80
2023-04-05T03:33:49.395Z,1.70
2023-04-05T03:36:16.753Z,1.70
2023-04-05T03:38:45.027Z,1.80
2023-04-05T03:41:11.725Z,1.80
2023-04-05T03:43:38.498Z,1.80
2023-04-05T03:46:05.922Z,1.80
2023-04-05T03:48:34.955Z,1.80
2023-04-05T03:51:02.039Z,1.90
2023-04-05T03:53:28.735Z,2.00
2023-04-05T03:55:55.657Z,1.90
2023-04-05T03:58:22.451Z,1.90
2023-04-05T04:00:49.111Z,1.90
2023-04-05T04:03:15.883Z,2.00
2023-04-05T04:05:44.006Z,2.00
2023-04-05T04:08:12.540Z,2.00
2023-04-05T04:10:40.409Z,2.10
2023-04-05T04:13:07.395Z,2.10
2023-04-05T04:15:35.313Z,2.10
2023-04-05T04:18:02.139Z,2.10
2023-04-05T04:20:30.396Z,2.10
2023-04-05T04:22:58.543Z,2.10
2023-04-05T04:25:25.269Z,2.10
2023-04-05T04:27:52.353Z,2.10
2023-04-05T04:30:19.487Z,2.10
2023-04-05T04:32:46.213Z,2.10
2023-04-05T04:35:15.042Z,2.10
2023-04-05T04:37:42.330Z,2.10
2023-04-05T04:40:11.071Z,2.10
2023-04-05T04:42:39.041Z,2.10
2023-04-05T04:45:06.296Z,2.10
2023-04-05T04:47:34.561Z,2.10
2023-04-05T04:50:12.819Z,2.20
2023-04-05T04:52:40.951Z,2.20
2023-04-05T04:55:09.663Z,2.30
2023-04-05T04:57:37.352Z,2.20
2023-04-05T05:00:04.471Z,2.30
2023-04-05T05:02:33.895Z,2.20
2023-04-05T05:05:01.884Z,2.30
2023-04-05T05:07:33.047Z,2.30
2023-04-05T05:10:07.531Z,2.30
2023-04-05T05:12:39.035Z,2.30
2023-04-05T05:15:07.875Z,2.30
2023-04-05T05:17:35.821Z,2.30
2023-04-05T05:20:04.489Z,2.30
2023-04-05T05:22:31.657Z,2.30
2023-04-05T05:24:59.448Z,2.40
2023-04-05T05:27:26.187Z,2.40
2023-04-05T05:29:54.973Z,2.40
2023-04-05T05:32:25.356Z,2.40
2023-04-05T05:35:02.996Z,2.40
2023-04-05T05:37:33.469Z,2.40
2023-04-05T05:40:06.767Z,2.40
2023-04-05T05:42:36.345Z,2.40
2023-04-05T05:45:05.202Z,2.40
2023-04-05T05:47:40.913Z,2.40
2023-04-05T05:50:13.073Z,2.40
2023-04-05T05:52:43.383Z,2.40
2023-04-05T05:55:11.650Z,2.40
2023-04-05T05:57:39.999Z,2.40
2023-04-05T06:00:09.438Z,2.50
2023-04-05T06:02:36.909Z,2.50
2023-04-05T06:05:06.338Z,2.50
2023-04-05T06:07:36.503Z,2.60
2023-04-05T06:10:08.416Z,2.60
2023-04-05T06:12:40.203Z,2.60
2023-04-05T06:15:10.032Z,2.70
2023-04-05T06:17:38.976Z,2.40
2023-04-05T06:20:10.720Z,2.40
2023-04-05T06:22:48.965Z,2.50
2023-04-05T06:25:18.564Z,2.70
2023-04-05T06:27:45.577Z,2.60
2023-04-05T06:30:14.146Z,2.60
2023-04-05T06:32:44.176Z,2.70
2023-04-05T06:35:12.585Z,2.70
2023-04-05T06:37:39.498Z,2.70
2023-04-05T06:40:07.110Z,2.40
2023-04-05T06:42:33.992Z,2.40
2023-04-05T06:45:01.178Z,2.30
2023-04-05T06:47:27.942Z,2.20
2023-04-05T06:49:55.080Z,2.40
2023-04-05T06:52:22.104Z,2.50
2023-04-05T06:54:48.900Z,2.60
2023-04-05T06:57:15.741Z,2.50
2023-04-05T06:59:43.845Z,2.50
2023-04-05T07:02:12.547Z,2.60
2023-04-05T07:04:40.895Z,2.70
2023-04-05T07:07:09.808Z,3.00
2023-04-05T07:09:40.040Z,3.10
2023-04-05T07:12:09.144Z,3.20
2023-04-05T07:14:38.621Z,3.30
2023-04-05T07:17:09.440Z,3.30
2023-04-05T07:19:38.762Z,3.40
2023-04-05T07:22:05.513Z,3.50
2023-04-05T07:24:32.557Z,3.50
2023-04-05T07:26:59.860Z,3.50
2023-04-05T07:29:27.728Z,3.60
2023-04-05T07:31:54.592Z,3.70
2023-04-05T07:34:21.938Z,3.80
2023-04-05T07:36:49.183Z,3.90
2023-04-05T07:39:18.624Z,3.90
2023-04-05T07:41:45.610Z,3.80
2023-04-05T07:44:12.471Z,3.60
2023-04-05T07:46:39.588Z,3.50
2023-04-05T07:49:06.475Z,3.50
2023-04-05T07:51:33.354Z,3.30
2023-04-05T07:54:01.876Z,3.20
2023-04-05T07:56:31.618Z,3.00
2023-04-05T07:59:00.009Z,3.10
2023-04-05T08:01:26.800Z,3.20
2023-04-05T08:03:57.064Z,3.30
2023-04-05T08:06:25.281Z,3.40
2023-04-05T08:08:52.284Z,3.40
2023-04-05T08:11:19.259Z,3.40
2023-04-05T08:13:46.461Z,3.30
2023-04-05T08:16:14.396Z,3.30
2023-04-05T08:18:44.425Z,3.40
2023-04-05T08:21:14.182Z,3.50
2023-04-05T08:23:41.353Z,3.50
2023-04-05T08:26:09.736Z,3.60
2023-04-05T08:28:36.795Z,3.70
2023-04-05T08:31:05.151Z,3.80
2023-04-05T08:33:35.498Z,3.90
2023-04-05T08:36:08.081Z,3.90
2023-04-05T08:38:35.321Z,4.00
2023-04-05T08:41:17.744Z,4.00
2023-04-05T08:43:55.541Z,4.10
2023-04-05T08:46:23.083Z,4.10
2023-04-05T08:48:50.606Z,4.20
2023-04-05T08:51:26.246Z,4.30
2023-04-05T08:53:54.276Z,4.40
2023-04-05T08:56:26.858Z,4.50
2023-04-05T08:59:13.029Z,4.40
2023-04-05T09:01:46.518Z,4.40
2023-04-05T09:04:19.010Z,4.50
2023-04-05T09:06:47.097Z,4.50
2023-04-05T09:09:15.208Z,4.60
2023-04-05T09:11:44.867Z,4.50
2023-04-05T09:14:12.299Z,4.60
2023-04-05T09:16:41.764Z,4.60
2023-04-05T09:19:10.961Z,4.70
2023-04-05T09:22:04.119Z,4.80
2023-04-05T09:24:44.302Z,4.90
2023-04-05T09:27:16.591Z,5.00
2023-04-05T09:29:48.753Z,5.10
2023-04-05T09:32:18.532Z,5.10
2023-04-05T09:34:48.054Z,5.20
2023-04-05T09:37:20.536Z,5.10
2023-04-05T09:39:49.127Z,5.00
2023-04-05T09:42:17.796Z,5.00
2023-04-05T09:44:56.011Z,5.00
2023-04-05T09:47:28.065Z,5.00
2023-04-05T09:49:59.119Z,5.20
2023-04-05T09:52:32.454Z,5.30
2023-04-05T09:55:04.030Z,5.30
2023-04-05T09:57:36.882Z,5.30
2023-04-05T10:00:07.164Z,5.30
2023-04-05T10:02:41.767Z,5.40
2023-04-05T10:05:11.360Z,5.50
2023-04-05T10:07:40.050Z,5.60
2023-04-05T10:10:12.884Z,5.70
2023-04-05T10:12:41.444Z,5.60
2023-04-05T10:15:09.099Z,5.70
2023-04-05T10:17:45.825Z,5.90
2023-04-05T10:20:17.186Z,6.10
2023-04-05T10:23:00.600Z,6.30
2023-04-05T10:25:53.396Z,6.40
2023-04-05T10:28:36.364Z,6.50
2023-04-05T10:31:24.200Z,6.60
2023-04-05T10:34:05.363Z,6.80
2023-04-05T10:37:01.241Z,7.00
2023-04-05T10:39:36.345Z,7.30
2023-04-05T10:42:10.048Z,7.40
2023-04-05T10:44:37.412Z,7.60
2023-04-05T10:47:07.384Z,7.60
2023-04-05T10:49:40.051Z,7.60
2023-04-05T10:52:07.237Z,7.60
2023-04-05T10:54:35.753Z,7.60
2023-04-05T10:57:09.701Z,7.60
2023-04-05T10:59:44.458Z,7.60
2023-04-05T11:02:13.958Z,7.30
2023-04-05T11:04:42.771Z,7.10
2023-04-05T11:07:55.494Z,7.10
2023-04-05T11:10:27.496Z,7.10
2023-04-05T11:13:00.983Z,7.10
2023-04-05T11:15:32.142Z,7.20
2023-04-05T11:18:18.120Z,7.40
2023-04-05T11:20:54.400Z,7.50
2023-04-05T11:23:32.707Z,7.60
2023-04-05T11:26:19.132Z,7.60
2023-04-05T11:28:58.870Z,7.60
2023-04-05T11:31:49.750Z,7.60
2023-04-05T11:34:25.467Z,7.50
2023-04-05T11:36:58.407Z,7.60
2023-04-05T11:39:26.577Z,7.70
2023-04-05T11:42:03.940Z,7.80
2023-04-05T11:44:47.840Z,7.90
2023-04-05T11:47:20.193Z,7.90
2023-04-05T11:49:50.615Z,7.80
2023-04-05T11:52:20.458Z,7.80
2023-04-05T11:54:48.058Z,7.80
2023-04-05T11:57:24.901Z,7.80
2023-04-05T11:59:54.499Z,7.90
2023-04-05T12:02:26.232Z,7.90
2023-04-05T12:05:01.852Z,8.00
2023-04-05T12:07:32.749Z,8.00
2023-04-05T12:10:03.816Z,8.00
2023-04-05T12:12:49.063Z,7.90
2023-04-05T12:15:24.643Z,7.70
2023-04-05T12:17:58.301Z,7.40
2023-04-05T12:20:26.261Z,7.00
2023-04-05T12:25:08.456Z,6.80
2023-04-05T12:26:07.286Z,6.90
2023-04-05T12:28:50.706Z,7.00
2023-04-05T12:31:17.765Z,7.00
2023-04-05T12:33:44.820Z,7.20
2023-04-05T12:36:14.781Z,7.20
2023-04-05T12:38:43.474Z,7.20
2023-04-05T12:41:10.532Z,7.40
2023-04-05T12:43:42.461Z,7.20
2023-04-05T12:46:17.501Z,7.50
2023-04-05T12:48:49.703Z,7.30
2023-04-05T12:51:17.286Z,7.30
2023-04-05T12:53:47.765Z,7.60
2023-04-05T12:56:15.770Z,7.80
2023-04-05T12:58:43.189Z,7.70
2023-04-05T13:01:12.268Z,7.90
2023-04-05T13:03:39.225Z,7.90
2023-04-05T13:06:07.467Z,7.90
2023-04-05T13:08:34.266Z,7.90
2023-04-05T13:11:01.725Z,7.90
2023-04-05T13:13:28.829Z,7.80
2023-04-05T13:15:55.620Z,7.70
2023-04-05T13:18:22.469Z,7.40
2023-04-05T13:20:49.427Z,7.50
2023-04-05T13:23:16.733Z,7.60
2023-04-05T13:25:44.741Z,7.60
2023-04-05T13:28:11.642Z,7.60
2023-04-05T13:30:38.504Z,8.00
2023-04-05T13:33:05.626Z,8.00
2023-04-05T13:35:32.742Z,7.90
2023-04-05T13:38:02.468Z,7.90
2023-04-05T13:40:32.762Z,7.90
2023-04-05T13:42:59.697Z,7.80
2023-04-05T13:45:29.754Z,7.60
2023-04-05T13:47:58.497Z,7.50
2023-04-05T13:50:25.605Z,7.60
2023-04-05T13:52:53.994Z,7.80
2023-04-05T13:55:23.473Z,8.20
2023-04-05T13:57:51.445Z,8.60
2023-04-05T14:00:19.125Z,9.00
2023-04-05T14:02:48.197Z,9.50
2023-04-05T14:05:17.263Z,9.80
2023-04-05T14:07:47.895Z,10.10
2023-04-05T14:10:21.833Z,10.10
2023-04-05T14:12:50.026Z,10.20
2023-04-05T14:15:20.483Z,10.30
2023-04-05T14:17:48.878Z,10.40
2023-04-05T14:20:18.621Z,10.60
2023-04-05T14:22:46.261Z,10.90
2023-04-05T14:25:16.209Z,11.20
2023-04-05T14:27:44.760Z,10.80
2023-04-05T14:30:13.473Z,10.70
2023-04-05T14:32:40.522Z,10.80
2023-04-05T14:35:09.243Z,10.80
2023-04-05T14:37:39.089Z,10.80
2023-04-05T14:40:07.605Z,11.10
2023-04-05T14:42:47.694Z,11.10
2023-04-05T14:45:15.787Z,11.20
2023-04-05T14:47:43.366Z,11.20
2023-04-05T14:50:12.045Z,11.30
2023-04-05T14:52:40.017Z,11.70
2023-04-05T14:55:08.705Z,12.30
2023-04-05T14:57:36.275Z,12.60
2023-04-05T15:00:05.175Z,12.50
2023-04-05T15:02:32.108Z,12.20
2023-04-05T15:04:59.061Z,12.10
2023-04-05T15:07:28.860Z,12.00
2023-04-05T15:09:55.968Z,11.90
2023-04-05T15:12:23.033Z,11.70
2023-04-05T15:14:50.387Z,11.60
2023-04-05T15:17:17.504Z,11.30
2023-04-05T15:19:44.342Z,11.10
2023-04-05T15:22:11.247Z,10.70
2023-04-05T15:24:38.835Z,10.60
2023-04-05T15:27:09.293Z,10.40
2023-04-05T15:29:36.227Z,10.30
2023-04-05T15:32:03.575Z,10.00
2023-04-05T15:34:31.268Z,9.60
2023-04-05T15:36:58.133Z,9.40
2023-04-05T15:39:25.138Z,9.20
2023-04-05T15:41:52.117Z,8.90
2023-04-05T15:44:19.253Z,8.60
2023-04-05T15:46:46.141Z,8.40
2023-04-05T15:49:16.992Z,8.30
2023-04-05T15:51:45.730Z,8.20
2023-04-05T15:54:12.539Z,8.20
2023-04-05T15:56:39.375Z,8.30
2023-04-05T15:59:06.349Z,8.40
2023-04-05T16:01:35.222Z,8.40
2023-04-05T16:04:03.519Z,8.50
2023-04-05T16:06:32.488Z,8.60
2023-04-05T16:08:59.829Z,8.80
2023-04-05T16:11:27.675Z,8.90
2023-04-05T16:13:54.517Z,9.10
2023-04-05T16:16:32.540Z,9.30
2023-04-05T16:19:06.436Z,9.10
2023-04-05T16:21:34.500Z,9.10
2023-04-05T16:24:02.529Z,9.10
2023-04-05T16:26:29.902Z,9.10
2023-04-05T16:28:56.823Z,9.20
2023-04-05T16:31:23.922Z,9.20
2023-04-05T16:33:50.757Z,9.30
2023-04-05T16:36:17.844Z,9.30
2023-04-05T16:38:46.796Z,9.30
2023-04-05T16:41:14.835Z,9.30
2023-04-05T16:43:41.597Z,9.40
2023-04-05T16:46:08.425Z,9.50
2023-04-05T16:48:35.241Z,9.60
2023-04-05T16:51:02.056Z,9.60
2023-04-05T16:53:29.614Z,9.60
2023-04-05T16:55:56.758Z,9.60
2023-04-05T16:58:23.656Z,9.60
2023-04-05T17:00:50.636Z,9.50
2023-04-05T17:03:17.586Z,9.40
2023-04-05T17:05:44.616Z,9.30
2023-04-05T17:08:12.961Z,9.20
2023-04-05T17:10:39.749Z,9.10
2023-04-05T17:13:07.961Z,9.00
2023-04-05T17:15:34.826Z,8.90
2023-04-05T17:18:03.174Z,8.80
2023-04-05T17:20:31.131Z,8.70
2023-04-05T17:22:59.375Z,8.60
2023-04-05T17:25:28.820Z,8.50
2023-04-05T17:27:56.186Z,8.40
2023-04-05T17:30:25.609Z,8.30
2023-04-05T17:32:52.579Z,8.20
2023-04-05T17:35:21.674Z,8.10
2023-04-05T17:37:49.778Z,8.10
2023-04-05T17:40:17.028Z,8.10
2023-04-05T17:42:45.130Z,8.00
2023-04-05T17:45:12.047Z,8.00
2023-04-05T17:47:43.031Z,7.90
2023-04-05T17:50:11.268Z,7.90
2023-04-05T17:52:41.169Z,7.90
2023-04-05T17:55:08.870Z,7.80
2023-04-05T17:57:36.919Z,7.70
2023-04-05T18:00:08.658Z,7.70
2023-04-05T18:02:35.618Z,7.60
2023-04-05T18:05:07.075Z,7.50
2023-04-05T18:07:41.244Z,7.50
2023-04-05T18:10:08.825Z,7.50
2023-04-05T18:12:36.673Z,7.40
2023-04-05T18:15:03.577Z,7.30
2023-04-05T18:17:30.985Z,7.20
2023-04-05T18:19:58.992Z,7.20
2023-04-05T18:22:29.803Z,7.20
2023-04-05T18:24:56.605Z,7.20
2023-04-05T18:27:23.345Z,7.20
2023-04-05T18:29:50.166Z,7.20
2023-04-05T18:32:17.232Z,7.20
2023-04-05T18:34:44.147Z,7.10
2023-04-05T18:37:11.149Z,7.00
2023-04-05T18:39:39.217Z,7.00
2023-04-05T18:42:07.779Z,7.00
2023-04-05T18:44:34.832Z,6.90
2023-04-05T18:47:01.609Z,6.90
2023-04-05T18:49:28.325Z,6.90
2023-04-05T18:51:55.114Z,6.90
2023-04-05T18:54:21.897Z,6.90
2023-04-05T18:56:48.662Z,6.90
2023-04-05T18:59:15.525Z,6.90
2023-04-05T19:01:42.409Z,6.90
2023-04-05T19:04:09.621Z,6.90
2023-04-05T19:06:36.659Z,6.90
2023-04-05T19:09:03.597Z,6.80
2023-04-05T19:11:30.523Z,6.80
2023-04-05T19:13:58.752Z,6.80
2023-04-05T19:16:25.562Z,6.80
2023-04-05T19:18:52.635Z,6.80
2023-04-05T19:21:19.422Z,6.70
2023-04-05T19:23:46.226Z,6.70
2023-04-05T19:26:14.412Z,6.60
2023-04-05T19:28:41.257Z,6.60
2023-04-05T19:31:10.045Z,6.60
2023-04-05T19:33:37.073Z,6.60
2023-04-05T19:36:05.414Z,6.50
2023-04-05T19:38:37.548Z,6.50
2023-04-05T19:41:06.695Z,6.50
2023-04-05T19:43:43.856Z,6.40
2023-04-05T19:46:16.618Z,6.40
2023-04-05T19:48:46.476Z,6.40
2023-04-05T19:51:15.244Z,6.40
2023-04-05T19:53:50.448Z,6.40
2023-04-05T19:56:23.387Z,6.50
2023-04-05T19:58:56.320Z,6.40
2023-04-05T20:01:33.050Z,6.40
2023-04-05T20:04:01.035Z,6.40
2023-04-05T20:06:33.159Z,6.30
2023-04-05T20:09:04.502Z,6.30
2023-04-05T20:11:31.487Z,6.30
2023-04-05T20:13:58.791Z,6.20
2023-04-05T20:16:34.075Z,6.20
2023-04-05T20:19:06.278Z,6.20
2023-04-05T20:21:34.130Z,6.20
2023-04-05T20:24:01.786Z,6.20
2023-04-05T20:26:32.642Z,6.10
2023-04-05T20:29:02.391Z,6.10
2023-04-05T20:31:33.021Z,6.10
2023-04-05T20:34:19.659Z,6.00
2023-04-05T20:36:51.818Z,6.00
2023-04-05T20:39:19.139Z,6.00
2023-04-05T20:41:46.494Z,6.00
2023-04-05T20:44:13.372Z,6.00
2023-04-05T20:46:40.225Z,6.00
2023-04-05T20:49:07.500Z,6.00
2023-04-05T20:51:34.617Z,6.10
2023-04-05T20:54:01.351Z,6.10
2023-04-05T20:56:28.218Z,6.10
2023-04-05T20:58:55.054Z,6.10
2023-04-05T21:01:21.910Z,6.10
2023-04-05T21:03:49.095Z,6.00
2023-04-05T21:06:15.878Z,6.00
2023-04-05T21:08:42.594Z,6.00
2023-04-05T21:11:10.612Z,6.00
2023-04-05T21:13:37.991Z,6.10
2023-04-05T21:16:06.645Z,6.00
2023-04-05T21:18:34.781Z,5.90
2023-04-05T21:21:03.428Z,5.90
2023-04-05T21:23:33.472Z,5.80
2023-04-05T21:26:02.318Z,5.70
2023-04-05T21:28:28.991Z,5.70
2023-04-05T21:30:55.833Z,5.70
2023-04-05T21:33:22.867Z,5.70
2023-04-05T21:35:50.047Z,5.70
2023-04-05T21:38:17.055Z,5.70
2023-04-05T21:40:43.829Z,5.70
2023-04-05T21:43:11.573Z,5.70
2023-04-05T21:45:38.418Z,5.70
2023-04-05T21:48:05.452Z,5.60
2023-04-05T21:50:32.323Z,5.60
2023-04-05T21:52:59.293Z,5.60
2023-04-05T21:55:26.210Z,5.60
2023-04-05T21:57:52.928Z,5.60
2023-04-05T22:00:20.040Z,5.60
2023-04-05T22:02:46.913Z,5.60
2023-04-05T22:05:25.629Z,5.50
2023-04-05T22:08:01.533Z,5.50
2023-04-05T22:10:28.729Z,5.40
2023-04-05T22:12:55.586Z,5.40
2023-04-05T22:15:22.348Z,5.40
2023-04-05T22:17:49.130Z,5.40
2023-04-05T22:20:16.145Z,5.40
2023-04-05T22:22:43.165Z,5.40
2023-04-05T22:25:11.149Z,5.40
2023-04-05T22:27:39.025Z,5.40
2023-04-05T22:30:06.497Z,5.40
2023-04-05T22:32:33.371Z,5.40
2023-04-05T22:35:00.215Z,5.30
2023-04-05T22:37:27.370Z,5.30
2023-04-05T22:39:54.220Z,5.30
2023-04-05T22:42:20.991Z,5.40
2023-04-05T22:44:47.727Z,5.30
2023-04-05T22:47:14.492Z,5.30
2023-04-05T22:49:41.355Z,5.30
2023-04-05T22:52:08.080Z,5.20
2023-04-05T22:54:34.835Z,5.20
2023-04-05T22:57:01.616Z,5.20
2023-04-05T22:59:28.422Z,5.10
2023-04-05T23:01:55.385Z,5.10
2023-04-05T23:04:22.261Z,5.10
2023-04-05T23:06:49.046Z,5.10
2023-04-05T23:09:15.831Z,5.10
2023-04-05T23:11:43.752Z,5.10
2023-04-05T23:14:12.057Z,5.10
2023-04-05T23:16:39.638Z,5.10
2023-04-05T23:19:08.063Z,5.10
2023-04-05T23:21:35.380Z,5.10
2023-04-05T23:24:03.500Z,5.00
2023-04-05T23:26:30.265Z,5.00
2023-04-05T23:29:00.733Z,5.00
2023-04-05T23:31:30.949Z,5.00
2023-04-05T23:33:59.104Z,4.90
2023-04-05T23:36:27.443Z,4.90
2023-04-05T23:38:58.591Z,4.90
2023-04-05T23:41:25.761Z,4.90
2023-04-05T23:43:52.957Z,4.80
2023-04-05T23:46:19.806Z,4.80
2023-04-05T23:48:46.666Z,4.80
2023-04-05T23:51:13.621Z,4.70
2023-04-05T23:53:40.408Z,4.60
2023-04-05T23:56:07.564Z,4.60
2023-04-05T23:58:34.330Z,4.60
